createdAt,value
2019-05-06T00:01:19.482Z,78.40
2019-05-06T00:03:47.185Z,78.00
2019-05-06T00:06:14.652Z,78.30
2019-05-06T00:08:43.990Z,78.50
2019-05-06T00:11:11.554Z,78.70
2019-05-06T00:13:39.084Z,78.90
2019-05-06T00:16:06.846Z,79.20
2019-05-06T00:18:34.406Z,79.50
2019-05-06T00:21:04.438Z,79.70
2019-05-06T00:23:38.181Z,79.80
2019-05-06T00:26:27.503Z,80.10
2019-05-06T00:28:58.355Z,80.30
2019-05-06T00:31:26.017Z,80.50
2019-05-06T00:33:54.148Z,80.70
2019-05-06T00:36:23.577Z,80.90
2019-05-06T00:38:54.052Z,81.00
2019-05-06T00:41:27.333Z,81.80
2019-05-06T00:43:54.822Z,81.50
2019-05-06T00:46:40.195Z,81.60
2019-05-06T00:49:11.385Z,81.80
2019-05-06T00:51:39.356Z,82.00
2019-05-06T00:54:14.367Z,82.30
2019-05-06T00:56:41.973Z,82.50
2019-05-06T00:59:09.465Z,82.70
2019-05-06T01:01:38.127Z,83.00
2019-05-06T01:04:05.683Z,83.10
2019-05-06T01:06:34.431Z,84.00
2019-05-06T01:09:05.890Z,83.60
2019-05-06T01:11:35.430Z,83.70
2019-05-06T01:14:07.995Z,83.90
2019-05-06T01:16:35.892Z,84.20
2019-05-06T01:19:04.677Z,84.30
2019-05-06T01:21:34.251Z,84.50
2019-05-06T01:24:03.798Z,84.70
2019-05-06T01:26:31.268Z,84.80
2019-05-06T01:28:58.795Z,85.00
2019-05-06T01:31:39.865Z,85.40
2019-05-06T01:33:55.641Z,85.50
2019-05-06T01:36:24.927Z,86.60
2019-05-06T01:39:01.866Z,86.10
2019-05-06T01:41:39.482Z,86.10
2019-05-06T01:44:06.975Z,86.10
2019-05-06T01:46:34.502Z,86.30
2019-05-06T01:49:04.081Z,86.50
2019-05-06T01:51:31.369Z,87.00
2019-05-06T01:53:59.997Z,87.00
2019-05-06T01:56:27.559Z,87.20
2019-05-06T01:58:55.002Z,87.30
2019-05-06T02:04:11.316Z,88.20
2019-05-06T02:06:38.849Z,88.00
2019-05-06T02:09:13.784Z,87.80
2019-05-06T02:11:41.327Z,88.00
2019-05-06T02:14:08.914Z,88.10
2019-05-06T02:16:36.374Z,88.20
2019-05-06T02:19:04.258Z,89.00
2019-05-06T02:21:55.701Z,88.60
2019-05-06T02:24:28.243Z,88.60
2019-05-06T02:26:55.918Z,88.80
2019-05-06T02:29:25.594Z,89.00
2019-05-06T02:32:27.122Z,89.20
2019-05-06T02:35:14.891Z,89.40
2019-05-06T02:37:46.083Z,89.70
2019-05-06T02:40:24.832Z,89.90
2019-05-06T02:42:54.106Z,90.00
2019-05-06T02:45:23.564Z,90.00
2019-05-06T02:48:04.762Z,90.00
2019-05-06T02:50:53.756Z,90.20
2019-05-06T02:53:23.730Z,90.20
2019-05-06T02:55:53.166Z,90.20
2019-05-06T02:58:23.439Z,90.30
2019-05-06T03:00:50.139Z,90.40
2019-05-06T03:03:17.768Z,90.50
2019-05-06T03:05:45.451Z,90.50
2019-05-06T03:08:14.440Z,90.60
2019-05-06T03:10:44.172Z,90.70
2019-05-06T03:13:13.913Z,90.70
2019-05-06T03:15:43.113Z,90.70
2019-05-06T03:18:10.134Z,90.80
2019-05-06T03:20:59.662Z,90.90
2019-05-06T03:23:28.808Z,90.90
2019-05-06T03:25:56.285Z,90.90
2019-05-06T03:28:23.643Z,91.00
2019-05-06T03:30:55.817Z,91.00
2019-05-06T03:33:45.074Z,91.00
2019-05-06T03:36:06.562Z,91.10
2019-05-06T03:38:22.713Z,91.10
2019-05-06T03:40:49.491Z,91.10
2019-05-06T03:43:17.132Z,91.50
2019-05-06T03:46:04.176Z,91.30
2019-05-06T03:48:36.360Z,91.30
2019-05-06T03:51:04.328Z,91.30
2019-05-06T03:53:34.528Z,91.40
2019-05-06T03:56:23.830Z,91.40
2019-05-06T03:58:53.754Z,91.50
2019-05-06T04:01:24.014Z,91.50
2019-05-06T04:03:56.026Z,91.40
2019-05-06T04:06:23.896Z,91.50
2019-05-06T04:08:52.961Z,91.50
2019-05-06T04:11:22.884Z,91.50
2019-05-06T04:13:53.470Z,91.50
2019-05-06T04:16:33.774Z,91.80
2019-05-06T04:19:14.964Z,91.50
2019-05-06T04:21:53.065Z,91.60
2019-05-06T04:24:34.673Z,91.60
2019-05-06T04:27:29.230Z,91.60
2019-05-06T04:29:57.882Z,91.60
2019-05-06T04:32:25.523Z,91.60
2019-05-06T04:34:53.611Z,91.60
2019-05-06T04:37:24.092Z,91.70
2019-05-06T04:39:53.243Z,91.80
2019-05-06T04:42:23.322Z,91.90
2019-05-06T04:44:53.111Z,91.90
2019-05-06T04:47:23.823Z,91.80
2019-05-06T04:49:52.865Z,91.80
2019-05-06T04:52:19.177Z,91.80
2019-05-06T04:54:47.747Z,91.80
2019-05-06T04:57:15.350Z,91.80
2019-05-06T04:59:43.908Z,91.80
2019-05-06T05:02:13.249Z,91.80
2019-05-06T05:04:43.278Z,91.80
2019-05-06T05:07:12.653Z,91.70
2019-05-06T05:09:39.667Z,91.70
2019-05-06T05:12:17.126Z,91.70
2019-05-06T05:14:54.562Z,91.70
2019-05-06T05:17:33.187Z,91.70
2019-05-06T05:20:02.197Z,91.60
2019-05-06T05:22:29.727Z,91.50
2019-05-06T05:24:58.299Z,91.50
2019-05-06T05:27:25.852Z,91.50
2019-05-06T05:29:53.469Z,91.40
2019-05-06T05:32:22.490Z,91.40
2019-05-06T05:34:52.267Z,91.40
2019-05-06T05:37:22.835Z,91.30
2019-05-06T05:39:52.019Z,91.30
2019-05-06T05:42:45.242Z,91.30
2019-05-06T05:45:12.969Z,91.30
2019-05-06T05:47:42.512Z,91.20
2019-05-06T05:50:19.318Z,91.10
2019-05-06T05:52:47.370Z,91.00
2019-05-06T05:55:15.012Z,90.90
2019-05-06T05:57:43.283Z,90.80
2019-05-06T06:00:12.911Z,90.60
2019-05-06T06:02:43.450Z,90.40
2019-05-06T06:05:09.974Z,90.20
2019-05-06T06:07:37.590Z,89.70
2019-05-06T06:10:35.238Z,88.90
2019-05-06T06:13:03.030Z,88.20
2019-05-06T06:15:42.338Z,87.30
2019-05-06T06:18:29.609Z,86.00
2019-05-06T06:21:21.225Z,85.60
2019-05-06T06:23:47.778Z,85.00
2019-05-06T06:26:15.546Z,84.30
2019-05-06T06:28:42.970Z,83.70
2019-05-06T06:31:35.786Z,82.10
2019-05-06T06:34:10.167Z,81.20
2019-05-06T06:37:02.740Z,80.60
2019-05-06T06:39:38.600Z,80.00
2019-05-06T06:42:06.169Z,79.60
2019-05-06T06:44:34.430Z,78.90
2019-05-06T06:47:02.228Z,78.30
2019-05-06T06:49:29.784Z,77.20
2019-05-06T06:51:57.447Z,76.70
2019-05-06T06:54:25.052Z,76.40
2019-05-06T06:57:12.729Z,76.10
2019-05-06T06:59:53.790Z,75.70
2019-05-06T07:02:39.417Z,75.60
2019-05-06T07:05:27.108Z,75.60
2019-05-06T07:07:48.132Z,75.80
2019-05-06T07:10:33.890Z,75.90
2019-05-06T07:13:02.905Z,76.20
2019-05-06T07:15:33.571Z,76.10
2019-05-06T07:18:02.549Z,76.00
2019-05-06T07:20:34.262Z,76.00
2019-05-06T07:23:22.067Z,76.00
2019-05-06T07:25:49.724Z,75.30
2019-05-06T07:28:17.412Z,75.10
2019-05-06T07:30:44.841Z,74.90
2019-05-06T07:33:13.354Z,74.40
2019-05-06T07:35:43.865Z,74.30
2019-05-06T07:38:12.008Z,74.30
2019-05-06T07:40:41.966Z,74.10
2019-05-06T07:43:27.898Z,73.90
2019-05-06T07:45:57.182Z,73.70
2019-05-06T07:48:24.675Z,73.80
2019-05-06T07:50:52.173Z,74.00
2019-05-06T07:53:19.769Z,73.70
2019-05-06T07:55:47.895Z,73.30
2019-05-06T07:58:15.471Z,73.10
2019-05-06T08:00:43.029Z,72.60
2019-05-06T08:03:13.804Z,72.30
2019-05-06T08:05:52.818Z,72.40
2019-05-06T08:08:09.750Z,72.30
2019-05-06T08:10:37.656Z,71.90
2019-05-06T08:13:05.163Z,71.40
2019-05-06T08:15:32.989Z,71.00
2019-05-06T08:18:03.071Z,71.00
2019-05-06T08:20:38.855Z,71.00
2019-05-06T08:23:23.841Z,70.80
2019-05-06T08:25:54.374Z,70.70
2019-05-06T08:28:22.587Z,70.30
2019-05-06T08:30:52.974Z,70.30
2019-05-06T08:33:21.870Z,70.60
2019-05-06T08:35:49.646Z,70.70
2019-05-06T08:38:17.283Z,70.50
2019-05-06T08:40:44.835Z,70.20
2019-05-06T08:43:13.097Z,70.20
2019-05-06T08:45:42.085Z,70.80
2019-05-06T08:48:09.879Z,71.50
2019-05-06T08:50:50.246Z,72.00
2019-05-06T08:53:39.546Z,72.40
2019-05-06T08:56:09.096Z,72.70
2019-05-06T08:58:45.849Z,72.90
2019-05-06T09:01:42.392Z,72.60
2019-05-06T09:04:15.262Z,71.30
2019-05-06T09:06:39.566Z,70.00
2019-05-06T09:09:08.227Z,68.50
2019-05-06T09:11:37.333Z,68.10
2019-05-06T09:14:04.919Z,67.20
2019-05-06T09:16:33.066Z,66.50
2019-05-06T09:19:04.299Z,65.30
2019-05-06T09:21:33.563Z,64.20
2019-05-06T09:24:03.034Z,64.00
2019-05-06T09:26:42.942Z,63.70
2019-05-06T09:29:17.115Z,63.50
2019-05-06T09:31:52.207Z,63.30
2019-05-06T09:34:34.925Z,63.40
2019-05-06T09:37:13.437Z,63.00
2019-05-06T09:39:43.271Z,63.40
2019-05-06T09:42:12.825Z,63.40
2019-05-06T09:44:42.704Z,63.70
2019-05-06T09:49:59.290Z,62.90
2019-05-06T09:52:26.699Z,62.50
2019-05-06T09:55:03.237Z,62.20
2019-05-06T09:57:32.721Z,61.80
2019-05-06T10:00:04.385Z,62.00
2019-05-06T10:02:32.581Z,61.10
2019-05-06T10:05:03.321Z,60.20
2019-05-06T10:07:29.735Z,59.80
2019-05-06T10:09:57.411Z,59.10
2019-05-06T10:12:24.948Z,58.70
2019-05-06T10:14:53.388Z,58.70
2019-05-06T10:17:21.108Z,58.30
2019-05-06T10:19:51.685Z,58.00
2019-05-06T10:22:19.202Z,58.20
2019-05-06T10:24:47.881Z,58.20
2019-05-06T10:27:15.510Z,58.50
2019-05-06T10:30:00.121Z,58.70
2019-05-06T10:32:49.823Z,58.70
2019-05-06T10:35:17.541Z,58.20
2019-05-06T10:38:23.725Z,57.50
2019-05-06T10:41:03.519Z,57.40
2019-05-06T10:44:07.437Z,57.20
2019-05-06T10:46:35.095Z,57.30
2019-05-06T10:49:02.745Z,57.00
2019-05-06T10:51:39.215Z,56.80
2019-05-06T10:54:06.668Z,56.70
2019-05-06T10:56:56.922Z,57.00
2019-05-06T10:59:23.074Z,57.30
2019-05-06T11:01:52.676Z,57.10
2019-05-06T11:04:22.545Z,57.30
2019-05-06T11:06:52.493Z,57.50
2019-05-06T11:09:19.510Z,57.60
2019-05-06T11:11:49.904Z,57.80
2019-05-06T11:14:17.387Z,57.40
2019-05-06T11:16:44.814Z,57.40
2019-05-06T11:19:13.343Z,57.30
2019-05-06T11:21:42.210Z,57.30
2019-05-06T11:24:12.231Z,56.90
2019-05-06T11:26:39.691Z,56.70
2019-05-06T11:29:12.816Z,56.20
2019-05-06T11:31:54.818Z,56.20
2019-05-06T11:34:35.359Z,56.10
2019-05-06T11:37:27.230Z,55.80
2019-05-06T11:39:54.734Z,56.10
2019-05-06T11:42:31.021Z,56.30
2019-05-06T11:44:53.107Z,57.30
2019-05-06T11:47:23.200Z,58.50
2019-05-06T11:49:55.948Z,59.10
2019-05-06T11:52:22.678Z,59.50
2019-05-06T11:54:52.698Z,59.90
2019-05-06T11:57:19.819Z,61.00
2019-05-06T11:59:48.075Z,60.70
2019-05-06T12:02:19.369Z,61.00
2019-05-06T12:04:47.375Z,61.10
2019-05-06T12:07:16.077Z,61.90
2019-05-06T12:09:44.993Z,61.60
2019-05-06T12:12:12.882Z,61.80
2019-05-06T12:14:42.736Z,62.00
2019-05-06T12:17:09.705Z,62.30
2019-05-06T12:19:37.329Z,62.70
2019-05-06T12:22:04.894Z,62.90
2019-05-06T12:24:32.493Z,63.30
2019-05-06T12:27:00.043Z,63.30
2019-05-06T12:29:27.701Z,63.30
2019-05-06T12:32:14.759Z,63.00
2019-05-06T12:34:42.991Z,63.00
2019-05-06T12:37:12.821Z,63.20
2019-05-06T12:39:44.857Z,63.30
2019-05-06T12:42:25.846Z,63.60
2019-05-06T12:45:13.056Z,64.10
2019-05-06T12:48:06.019Z,64.10
2019-05-06T12:50:33.482Z,64.40
2019-05-06T12:53:01.451Z,65.00
2019-05-06T12:55:29.071Z,66.00
2019-05-06T12:57:56.684Z,67.30
2019-05-06T13:00:25.415Z,67.60
2019-05-06T13:02:53.395Z,68.30
2019-05-06T13:05:21.309Z,69.40
2019-05-06T13:07:48.729Z,69.70
2019-05-06T13:10:19.048Z,70.20
2019-05-06T13:12:50.653Z,71.20
2019-05-06T13:15:18.132Z,73.20
2019-05-06T13:17:45.533Z,73.40
2019-05-06T13:20:15.790Z,73.70
2019-05-06T13:23:08.935Z,73.50
2019-05-06T13:25:32.785Z,73.50
2019-05-06T13:28:00.973Z,74.00
2019-05-06T13:30:28.727Z,74.40
2019-05-06T13:33:04.050Z,74.60
2019-05-06T13:35:32.750Z,74.60
2019-05-06T13:38:00.319Z,74.50
2019-05-06T13:40:28.256Z,74.40
2019-05-06T13:43:13.724Z,74.40
2019-05-06T13:45:43.314Z,74.70
2019-05-06T13:48:22.930Z,74.70
2019-05-06T13:50:52.563Z,74.60
2019-05-06T13:53:37.935Z,74.80
2019-05-06T13:55:52.914Z,74.70
2019-05-06T13:58:42.804Z,74.50
2019-05-06T14:01:13.724Z,74.20
2019-05-06T14:03:42.856Z,73.70
2019-05-06T14:06:12.268Z,73.30
2019-05-06T14:08:42.139Z,73.00
2019-05-06T14:11:09.277Z,73.60
2019-05-06T14:13:36.816Z,72.50
2019-05-06T14:16:06.912Z,71.90
2019-05-06T14:18:37.547Z,71.50
2019-05-06T14:21:04.075Z,71.60
2019-05-06T14:23:32.754Z,71.60
2019-05-06T14:26:24.539Z,72.50
2019-05-06T14:28:55.939Z,71.90
2019-05-06T14:31:32.686Z,72.20
2019-05-06T14:34:00.492Z,72.50
2019-05-06T14:36:28.102Z,72.40
2019-05-06T14:38:55.777Z,72.60
2019-05-06T14:41:27.212Z,73.00
2019-05-06T14:43:54.706Z,73.50
2019-05-06T14:46:23.271Z,73.90
2019-05-06T14:48:53.415Z,74.20
2019-05-06T14:51:23.703Z,74.10
2019-05-06T14:53:53.040Z,74.40
2019-05-06T14:56:46.357Z,74.80
2019-05-06T14:59:13.869Z,74.80
2019-05-06T15:01:45.105Z,74.70
2019-05-06T15:04:12.542Z,74.80
2019-05-06T15:06:42.336Z,74.60
2019-05-06T15:09:13.129Z,74.80
2019-05-06T15:11:39.832Z,74.60
2019-05-06T15:14:07.288Z,74.40
2019-05-06T15:16:36.002Z,74.30
2019-05-06T15:19:04.920Z,74.30
2019-05-06T15:21:38.024Z,74.30
2019-05-06T15:24:02.680Z,74.10
2019-05-06T15:26:30.405Z,74.00
2019-05-06T15:28:58.017Z,73.50
2019-05-06T15:31:48.039Z,73.50
2019-05-06T15:34:22.293Z,73.70
2019-05-06T15:36:56.725Z,73.70
2019-05-06T15:39:24.449Z,73.80
2019-05-06T15:41:52.109Z,74.00
2019-05-06T15:44:23.145Z,73.80
2019-05-06T15:46:49.215Z,73.70
2019-05-06T15:49:16.725Z,73.70
2019-05-06T15:51:44.158Z,73.80
2019-05-06T15:54:12.364Z,73.80
2019-05-06T15:56:42.113Z,73.70
2019-05-06T15:59:09.339Z,73.40
2019-05-06T16:01:36.994Z,73.00
2019-05-06T16:04:04.924Z,73.00
2019-05-06T16:06:33.210Z,73.00
2019-05-06T16:09:03.463Z,73.10
2019-05-06T16:11:33.413Z,73.20
2019-05-06T16:14:02.918Z,73.30
2019-05-06T16:16:33.581Z,73.30
2019-05-06T16:19:03.874Z,73.50
2019-05-06T16:21:33.437Z,73.50
2019-05-06T16:24:12.761Z,73.70
2019-05-06T16:26:42.479Z,73.80
2019-05-06T16:29:10.041Z,73.70
2019-05-06T16:31:57.845Z,73.80
2019-05-06T16:34:26.219Z,73.90
2019-05-06T16:36:54.082Z,74.00
2019-05-06T16:39:24.947Z,74.10
2019-05-06T16:41:52.397Z,74.20
2019-05-06T16:44:22.800Z,74.40
2019-05-06T16:46:52.105Z,75.10
2019-05-06T16:49:20.245Z,74.80
2019-05-06T16:51:47.786Z,74.90
2019-05-06T16:54:15.462Z,75.30
2019-05-06T16:56:49.184Z,75.40
2019-05-06T16:59:16.810Z,75.80
2019-05-06T17:01:45.446Z,76.10
2019-05-06T17:04:38.597Z,76.40
2019-05-06T17:07:06.042Z,76.80
2019-05-06T17:09:33.739Z,77.10
2019-05-06T17:12:02.825Z,78.50
2019-05-06T17:14:32.174Z,79.10
2019-05-06T17:17:00.166Z,79.50
2019-05-06T17:19:27.725Z,79.90
2019-05-06T17:21:55.519Z,80.50
2019-05-06T17:24:22.914Z,81.60
2019-05-06T17:26:53.937Z,81.40
2019-05-06T17:29:51.787Z,81.90
2019-05-06T17:32:42.044Z,82.30
2019-05-06T17:35:12.074Z,83.10
2019-05-06T17:37:55.010Z,83.40
2019-05-06T17:40:23.101Z,84.00
2019-05-06T17:42:53.111Z,84.30
2019-05-06T17:46:02.223Z,85.10
2019-05-06T17:48:38.108Z,85.90
2019-05-06T17:51:13.939Z,86.50
2019-05-06T17:53:44.535Z,87.00
2019-05-06T17:56:12.675Z,87.50
2019-05-06T17:58:42.199Z,87.90
2019-05-06T18:04:13.469Z,89.00
2019-05-06T18:06:52.444Z,89.40
2019-05-06T18:09:47.208Z,89.80
2019-05-06T18:12:23.185Z,90.00
2019-05-06T18:14:59.683Z,90.10
2019-05-06T18:17:27.605Z,90.20
2019-05-06T18:19:55.145Z,90.30
2019-05-06T18:22:22.813Z,90.50
2019-05-06T18:24:52.458Z,90.70
2019-05-06T18:27:22.491Z,90.80
2019-05-06T18:29:49.756Z,90.90
2019-05-06T18:32:17.148Z,91.00
2019-05-06T18:34:45.270Z,91.10
2019-05-06T18:37:33.275Z,91.20
2019-05-06T18:40:01.003Z,91.40
2019-05-06T18:42:28.995Z,91.40
2019-05-06T18:44:56.906Z,91.50
2019-05-06T18:47:24.702Z,91.60
2019-05-06T18:49:52.489Z,91.70
2019-05-06T18:52:22.869Z,91.80
2019-05-06T18:54:52.427Z,91.90
2019-05-06T18:57:23.857Z,92.40
2019-05-06T18:59:53.286Z,92.20
2019-05-06T19:02:23.002Z,92.30
2019-05-06T19:04:55.734Z,92.40
2019-05-06T19:07:23.227Z,92.40
2019-05-06T19:09:58.369Z,92.50
2019-05-06T19:12:31.717Z,92.60
2019-05-06T19:14:55.475Z,93.00
2019-05-06T19:17:23.090Z,92.80
2019-05-06T19:19:52.057Z,92.90
2019-05-06T19:22:20.184Z,93.00
2019-05-06T19:24:47.988Z,93.10
2019-05-06T19:27:15.587Z,93.20
2019-05-06T19:29:43.451Z,93.30
2019-05-06T19:32:12.343Z,93.40
2019-05-06T19:34:42.302Z,93.50
2019-05-06T19:37:10.476Z,93.60
2019-05-06T19:39:38.187Z,94.00
2019-05-06T19:42:07.755Z,93.80
2019-05-06T19:44:35.389Z,93.80
2019-05-06T19:47:03.011Z,93.90
2019-05-06T19:49:32.632Z,94.00
2019-05-06T19:52:00.139Z,94.10
2019-05-06T19:54:27.731Z,94.10
2019-05-06T19:56:55.237Z,94.10
2019-05-06T19:59:22.907Z,94.20
2019-05-06T20:01:52.338Z,94.20
2019-05-06T20:04:22.555Z,94.30
2019-05-06T20:06:57.308Z,94.40
2019-05-06T20:09:47.719Z,94.50
2019-05-06T20:12:38.411Z,94.50
2019-05-06T20:15:24.468Z,94.50
2019-05-06T20:17:52.446Z,94.60
2019-05-06T20:20:22.349Z,94.60
2019-05-06T20:22:49.964Z,94.70
2019-05-06T20:25:17.529Z,94.80
2019-05-06T20:27:45.278Z,94.80
2019-05-06T20:30:13.021Z,94.90
2019-05-06T20:32:42.521Z,95.00
2019-05-06T20:35:10.253Z,95.00
2019-05-06T20:37:37.857Z,95.10
2019-05-06T20:40:06.154Z,95.20
2019-05-06T20:42:33.759Z,95.20
2019-05-06T20:45:02.186Z,95.30
2019-05-06T20:47:32.023Z,95.30
2019-05-06T20:49:59.670Z,95.40
2019-05-06T20:52:30.304Z,95.40
2019-05-06T20:54:56.691Z,95.40
2019-05-06T20:57:24.554Z,95.40
2019-05-06T20:59:52.646Z,95.50
2019-05-06T21:02:25.562Z,95.50
2019-05-06T21:04:52.615Z,95.50
2019-05-06T21:07:23.001Z,95.50
2019-05-06T21:09:49.898Z,95.50
2019-05-06T21:12:17.445Z,95.60
2019-05-06T21:14:44.998Z,95.60
2019-05-06T21:17:12.645Z,95.70
2019-05-06T21:19:40.305Z,95.60
2019-05-06T21:22:08.141Z,95.70
2019-05-06T21:24:38.316Z,95.70
2019-05-06T21:27:06.040Z,95.80
2019-05-06T21:29:33.683Z,95.70
2019-05-06T21:32:02.694Z,95.80
2019-05-06T21:34:32.655Z,95.80
2019-05-06T21:37:04.078Z,95.80
2019-05-06T21:39:32.755Z,95.90
2019-05-06T21:42:01.284Z,95.80
2019-05-06T21:44:28.904Z,95.90
2019-05-06T21:46:56.469Z,95.90
2019-05-06T21:49:23.915Z,95.90
2019-05-06T21:51:51.488Z,96.00
2019-05-06T21:54:19.030Z,96.00
2019-05-06T21:56:46.624Z,95.90
2019-05-06T21:59:14.265Z,95.90
2019-05-06T22:01:42.939Z,96.30
2019-05-06T22:04:12.796Z,95.90
2019-05-06T22:06:42.754Z,95.90
2019-05-06T22:09:09.984Z,95.80
2019-05-06T22:11:37.980Z,95.90
2019-05-06T22:14:05.387Z,95.80
2019-05-06T22:16:33.354Z,96.00
2019-05-06T22:19:02.618Z,95.80
2019-05-06T22:21:32.013Z,95.70
2019-05-06T22:24:04.750Z,95.70
2019-05-06T22:26:32.662Z,95.70
2019-05-06T22:29:01.910Z,95.60
2019-05-06T22:31:29.399Z,95.60
2019-05-06T22:33:56.879Z,95.70
2019-05-06T22:36:24.391Z,95.60
2019-05-06T22:38:52.956Z,95.60
2019-05-06T22:41:23.295Z,95.60
2019-05-06T22:43:52.956Z,95.60
2019-05-06T22:46:24.381Z,95.60
2019-05-06T22:48:54.151Z,95.60
2019-05-06T22:51:24.010Z,95.50
2019-05-06T22:53:53.279Z,95.60
2019-05-06T22:56:22.858Z,95.60
2019-05-06T22:58:52.438Z,95.60
2019-05-06T23:01:43.198Z,95.60
2019-05-06T23:04:12.677Z,95.50
2019-05-06T23:06:40.376Z,95.50
2019-05-06T23:09:08.880Z,95.50
2019-05-06T23:11:37.144Z,95.60
2019-05-06T23:14:04.717Z,95.50
2019-05-06T23:16:32.918Z,95.60
2019-05-06T23:19:02.181Z,95.60
2019-05-06T23:21:29.656Z,95.50
2019-05-06T23:23:57.305Z,95.50
2019-05-06T23:26:24.799Z,95.50
2019-05-06T23:28:52.664Z,95.50
2019-05-06T23:31:22.012Z,95.60
2019-05-06T23:33:50.721Z,95.60
2019-05-06T23:36:18.223Z,95.70
2019-05-06T23:39:22.951Z,95.60
2019-05-06T23:42:26.990Z,95.90
2019-05-06T23:45:32.410Z,95.60
2019-05-06T23:48:36.952Z,95.50
2019-05-06T23:51:17.351Z,95.50
2019-05-06T23:54:22.047Z,95.50
2019-05-06T23:56:48.726Z,95.60
2019-05-06T23:59:22.559Z,95.60
